Gosford, Australia
Current Conditions -  °F | °C
As of 5:00 AM on Tuesday 21 Oct 2014 (Local Time) from YSRI Reporting Station
Overcast Overcast  
Wind Chill: 55°   Ceiling: 3700
Heat Index: 55°   Visibility: 6mi
Dew Point: 55°   Wind: 3mph
Humidity: 100%   Direction: 160°SSE
Pressure: 30.42"   Gusts: NA
Location:  33.43°S, 151.34°E
Report Text: YSRI 201800Z AUTO 16003KT 9999 // OVC037 13/13 Q1030
Loading
Personal Weather Stations






























Interactive Weather Map
Tropical Storm Tracking
New forecast layout! Learn more

10-Day Weather Forecast

Advertisements
Track Severe Weather on mobile